Time;durP1;ratioP1;P1;durP2;ratioP2;P2;SDS_P1;SDS_P2;PMS_P1;PMS_P2;Temp;Humidity;BMP_temperature;BMP_pressure;BME280_temperature;BME280_humidity;BME280_pressure;Samples;Min_cycle;Max_cycle;Signal;HPM_P1;HPM_P2
2022/04/13 00:02:15;;;;;;;3.45;1.60;;;17.10;43.10;;;;;;5062259;28;20385;-42
2022/04/13 00:04:43;;;;;;;2.42;1.75;;;17.10;43.20;;;;;;5061322;28;20048;-43
2022/04/13 00:07:10;;;;;;;2.22;1.50;;;17.10;43.30;;;;;;5063388;28;20052;-43
2022/04/13 00:09:38;;;;;;;4.13;1.80;;;17.10;43.20;;;;;;5058797;28;20053;-42
2022/04/13 00:12:06;;;;;;;3.33;1.50;;;17.10;43.30;;;;;;5059643;28;20048;-42
2022/04/13 00:14:35;;;;;;;3.72;1.90;;;17.10;43.30;;;;;;5059754;28;20067;-42
2022/04/13 00:17:03;;;;;;;4.32;1.90;;;17.10;43.30;;;;;;5059030;28;20053;-42
2022/04/13 00:19:30;;;;;;;4.63;2.00;;;17.10;43.30;;;;;;5061213;28;20503;-42
2022/04/13 00:21:58;;;;;;;3.63;1.77;;;17.10;43.40;;;;;;5061815;28;20563;-43
2022/04/13 00:24:25;;;;;;;4.30;1.67;;;17.10;43.40;;;;;;5061896;28;20052;-42
2022/04/13 00:26:53;;;;;;;2.60;1.65;;;17.10;43.40;;;;;;5061973;28;20052;-45
2022/04/13 00:29:20;;;;;;;2.08;1.42;;;17.10;43.40;;;;;;5063616;28;20448;-47
2022/04/13 00:31:51;;;;;;;3.83;1.70;;;17.10;43.50;;;;;;5060449;28;20059;-42
2022/04/13 00:34:18;;;;;;;3.95;1.52;;;17.10;43.50;;;;;;5061865;28;20056;-44
2022/04/13 00:36:46;;;;;;;3.42;1.52;;;17.10;43.60;;;;;;5081444;28;20052;-41
2022/04/13 00:39:13;;;;;;;5.70;1.70;;;17.10;43.60;;;;;;5083828;28;20063;-42
2022/04/13 00:41:41;;;;;;;4.28;1.70;;;17.10;43.60;;;;;;5081571;28;20055;-43
2022/04/13 00:44:10;;;;;;;4.38;2.20;;;17.10;43.60;;;;;;5084403;28;20126;-42
2022/04/13 00:46:38;;;;;;;3.35;1.50;;;17.10;43.70;;;;;;5082375;28;20423;-42
2022/04/13 00:49:07;;;;;;;2.80;1.50;;;17.10;43.70;;;;;;5083963;28;20553;-42
2022/04/13 00:51:35;;;;;;;3.42;1.83;;;17.10;43.70;;;;;;5078446;28;20048;-42
2022/04/13 00:54:04;;;;;;;3.58;1.70;;;17.10;43.60;;;;;;5083836;28;20130;-42
2022/04/13 00:56:33;;;;;;;3.55;2.00;;;17.00;43.70;;;;;;5080637;28;20056;-44
2022/04/13 00:59:05;;;;;;;3.45;1.48;;;17.00;43.70;;;;;;5083092;28;20052;-42
2022/04/13 01:01:35;;;;;;;3.33;1.80;;;17.00;43.70;;;;;;5080151;28;20060;-42
2022/04/13 01:04:04;;;;;;;4.03;2.00;;;17.00;43.80;;;;;;5081677;28;20412;-42
2022/04/13 01:06:34;;;;;;;6.18;1.90;;;17.00;43.80;;;;;;5081720;28;20052;-43
2022/04/13 01:09:03;;;;;;;3.42;1.63;;;16.90;43.80;;;;;;5082941;28;20503;-42
2022/04/13 01:11:30;;;;;;;4.32;2.13;;;17.00;43.80;;;;;;5077899;28;20044;-42
2022/04/13 01:13:58;;;;;;;3.03;1.80;;;17.00;43.90;;;;;;5081234;28;20052;-43
2022/04/13 01:16:26;;;;;;;3.00;1.50;;;16.90;43.90;;;;;;5080680;28;20067;-42
2022/04/13 01:18:55;;;;;;;3.95;1.92;;;16.90;44.00;;;;;;5081220;28;20047;-44
2022/04/13 01:24:17;;;;;;;4.53;1.80;;;16.90;44.00;;;;;;5060429;27;21007;-43
2022/04/13 01:26:45;;;;;;;2.45;1.70;;;16.90;44.10;;;;;;5057074;28;20061;-43
2022/04/13 01:29:13;;;;;;;2.75;1.67;;;16.90;44.10;;;;;;5057107;28;20497;-43
2022/04/13 01:31:41;;;;;;;3.88;1.45;;;16.90;44.10;;;;;;5057487;28;20056;-43
2022/04/13 01:34:09;;;;;;;2.95;1.50;;;16.90;44.20;;;;;;5059611;28;20067;-43
2022/04/13 01:36:38;;;;;;;2.10;1.60;;;16.90;44.20;;;;;;5056874;28;20072;-44
2022/04/13 01:39:07;;;;;;;5.82;1.83;;;16.90;44.20;;;;;;5052563;28;20048;-46
2022/04/13 01:41:36;;;;;;;3.95;1.58;;;16.90;44.30;;;;;;5054470;28;20064;-43
2022/04/13 01:44:04;;;;;;;3.45;1.73;;;16.90;44.30;;;;;;5052783;28;20049;-43
2022/04/13 01:46:31;;;;;;;3.33;1.58;;;16.90;44.30;;;;;;5055385;28;20051;-44
2022/04/13 01:48:59;;;;;;;3.50;1.98;;;16.90;44.30;;;;;;5058539;28;20045;-44
2022/04/13 01:51:26;;;;;;;5.28;1.63;;;16.90;44.30;;;;;;5050524;28;20045;-44
2022/04/13 01:53:54;;;;;;;3.17;1.80;;;16.90;44.30;;;;;;5056009;28;20056;-43
2022/04/13 01:56:21;;;;;;;3.60;1.88;;;16.90;44.40;;;;;;5051512;28;20057;-43
2022/04/13 01:58:50;;;;;;;3.45;1.55;;;16.90;44.40;;;;;;5053971;28;20067;-43
2022/04/13 02:01:21;;;;;;;3.33;1.80;;;16.90;44.40;;;;;;5051891;28;20053;-43
2022/04/13 02:03:50;;;;;;;5.30;2.00;;;16.90;44.40;;;;;;5046417;28;20060;-43
2022/04/13 02:06:19;;;;;;;6.53;1.80;;;16.90;44.40;;;;;;5042652;28;20056;-44
2022/04/13 02:08:48;;;;;;;4.35;1.90;;;16.90;44.40;;;;;;5043711;28;20515;-43
2022/04/13 02:11:16;;;;;;;7.93;2.17;;;16.90;44.50;;;;;;5045352;28;20048;-43
2022/04/13 02:13:43;;;;;;;4.65;2.05;;;16.90;44.50;;;;;;5054201;28;20048;-43
2022/04/13 02:16:12;;;;;;;3.08;1.90;;;16.90;44.40;;;;;;5058227;28;20049;-43
2022/04/13 02:18:40;;;;;;;3.35;2.20;;;16.90;44.50;;;;;;5056746;28;20049;-43
2022/04/13 02:21:08;;;;;;;9.02;2.00;;;16.80;44.50;;;;;;5053605;28;20052;-43
2022/04/13 02:23:36;;;;;;;6.65;2.15;;;16.80;44.60;;;;;;5056020;28;20057;-45
2022/04/13 02:26:03;;;;;;;3.58;2.03;;;16.80;44.70;;;;;;5049807;28;20589;-43
2022/04/13 02:28:31;;;;;;;3.53;1.88;;;16.80;44.80;;;;;;5053560;28;20064;-43
2022/04/13 02:30:58;;;;;;;2.53;1.70;;;16.80;44.80;;;;;;5050671;28;20056;-44
2022/04/13 02:33:31;;;;;;;4.50;2.30;;;16.70;44.80;;;;;;5049085;28;20045;-45
2022/04/13 02:35:59;;;;;;;4.15;1.83;;;16.70;44.90;;;;;;5044626;28;20056;-43
2022/04/13 02:38:26;;;;;;;6.03;2.00;;;16.70;44.80;;;;;;5029153;28;20054;-43
2022/04/13 02:40:53;;;;;;;3.78;1.98;;;16.70;44.90;;;;;;5032673;28;20056;-43
2022/04/13 02:43:21;;;;;;;3.35;1.95;;;16.70;44.90;;;;;;5037825;28;20049;-44
2022/04/13 02:45:49;;;;;;;3.72;2.00;;;16.60;44.90;;;;;;5038151;28;20056;-44
2022/04/13 02:48:16;;;;;;;2.95;1.92;;;16.60;44.90;;;;;;5036102;28;20416;-43
2022/04/13 02:50:48;;;;;;;5.57;2.15;;;16.60;45.00;;;;;;5039276;28;20547;-43
2022/04/13 02:53:16;;;;;;;4.57;2.10;;;16.60;45.10;;;;;;5026936;28;20057;-45
2022/04/13 02:55:43;;;;;;;3.70;2.03;;;16.60;45.00;;;;;;5024045;28;20538;-43
2022/04/13 02:58:11;;;;;;;6.47;2.15;;;16.50;45.00;;;;;;5031819;28;20404;-44
2022/04/13 03:00:39;;;;;;;3.50;2.17;;;16.50;45.00;;;;;;5037430;28;20060;-44
2022/04/13 03:03:06;;;;;;;3.85;1.83;;;16.50;45.10;;;;;;5042048;28;20049;-48
2022/04/13 03:05:34;;;;;;;4.30;2.20;;;16.50;45.10;;;;;;5044146;28;20053;-43
2022/04/13 03:08:03;;;;;;;4.55;2.15;;;16.40;45.10;;;;;;5040864;28;20060;-44
2022/04/13 03:10:30;;;;;;;4.68;2.17;;;16.40;45.30;;;;;;5036066;28;20058;-48
2022/04/13 03:12:58;;;;;;;2.83;1.80;;;16.40;45.30;;;;;;5037042;28;20053;-46
2022/04/13 03:15:25;;;;;;;3.75;2.00;;;16.30;45.30;;;;;;5037687;28;20061;-44
2022/04/13 03:17:53;;;;;;;6.25;2.33;;;16.30;45.30;;;;;;5040467;28;20057;-44
2022/04/13 03:20:20;;;;;;;3.40;1.98;;;16.30;45.40;;;;;;5041454;28;20052;-43
2022/04/13 03:22:50;;;;;;;3.25;1.70;;;16.20;45.40;;;;;;5039963;28;20266;-43
2022/04/13 03:25:19;;;;;;;4.05;1.80;;;16.20;45.50;;;;;;5040701;28;20404;-44
2022/04/13 03:27:46;;;;;;;3.17;1.98;;;16.20;45.50;;;;;;5042358;28;20057;-44
2022/04/13 03:30:16;;;;;;;3.80;1.98;;;16.20;45.60;;;;;;5033991;28;20512;-45
2022/04/13 03:32:44;;;;;;;5.70;2.20;;;16.10;45.60;;;;;;5041436;28;20060;-47
2022/04/13 03:35:12;;;;;;;2.88;1.90;;;16.10;45.70;;;;;;5039186;28;20053;-46
2022/04/13 03:37:41;;;;;;;3.70;2.15;;;16.10;45.70;;;;;;5042367;28;20060;-43
2022/04/13 03:40:10;;;;;;;4.13;1.63;;;16.00;45.80;;;;;;5041133;28;20057;-45
2022/04/13 03:42:40;;;;;;;3.40;2.13;;;16.00;45.80;;;;;;5042080;28;20049;-44
2022/04/13 03:45:09;;;;;;;3.60;2.00;;;16.00;45.80;;;;;;5039549;28;20053;-43
2022/04/13 03:47:37;;;;;;;4.65;2.10;;;16.00;45.90;;;;;;5043424;28;20049;-43
2022/04/13 03:50:06;;;;;;;3.50;2.03;;;15.90;46.00;;;;;;5041536;28;20052;-43
2022/04/13 03:52:34;;;;;;;6.28;2.25;;;15.90;46.00;;;;;;5039891;28;20049;-44
2022/04/13 03:55:04;;;;;;;5.45;2.00;;;15.90;46.00;;;;;;5035561;28;20049;-43
2022/04/13 03:57:31;;;;;;;5.70;2.00;;;15.90;46.20;;;;;;5030298;28;20053;-43
2022/04/13 04:00:00;;;;;;;3.53;1.85;;;15.80;46.20;;;;;;5035864;28;20061;-44
2022/04/13 04:02:28;;;;;;;3.70;2.03;;;15.80;46.20;;;;;;5026264;28;20493;-45
2022/04/13 04:04:56;;;;;;;2.92;1.80;;;15.80;46.20;;;;;;5033445;28;20488;-43
2022/04/13 04:07:23;;;;;;;5.40;1.77;;;15.80;46.30;;;;;;5034983;28;20049;-44
2022/04/13 04:09:52;;;;;;;3.83;2.28;;;15.70;46.30;;;;;;5036116;28;20833;-43
2022/04/13 04:12:19;;;;;;;3.92;1.90;;;15.70;46.40;;;;;;5034401;28;20127;-45
2022/04/13 04:14:47;;;;;;;3.47;2.20;;;15.70;46.40;;;;;;5034179;28;20049;-44
2022/04/13 04:17:16;;;;;;;48.85;25.13;;;15.70;46.50;;;;;;5028146;28;20558;-44
2022/04/13 04:19:43;;;;;;;41.53;19.42;;;15.70;46.70;;;;;;5034156;28;20052;-44
2022/04/13 04:22:11;;;;;;;26.30;13.75;;;15.60;46.60;;;;;;5034828;28;20061;-46
2022/04/13 04:24:38;;;;;;;11.95;6.22;;;15.60;46.70;;;;;;5036783;28;20052;-44
2022/04/13 04:27:06;;;;;;;6.43;3.45;;;15.60;47.20;;;;;;5037055;28;20052;-43
2022/04/13 04:29:35;;;;;;;4.30;2.63;;;15.60;46.70;;;;;;5036934;28;20053;-44
2022/04/13 04:32:02;;;;;;;5.20;2.75;;;15.60;46.80;;;;;;5029033;28;20064;-44
2022/04/13 04:34:33;;;;;;;5.18;2.30;;;15.60;46.80;;;;;;5038401;28;20489;-45
2022/04/13 04:37:01;;;;;;;4.47;2.30;;;15.60;46.90;;;;;;5035592;28;20060;-44
2022/04/13 04:39:28;;;;;;;5.13;2.90;;;15.60;46.90;;;;;;5039172;28;20053;-43
2022/04/13 04:41:56;;;;;;;4.88;2.63;;;15.60;47.00;;;;;;5034443;28;20048;-44
2022/04/13 04:44:23;;;;;;;6.78;2.50;;;15.50;47.00;;;;;;5040145;28;20053;-45
2022/04/13 04:46:51;;;;;;;3.10;2.20;;;15.50;47.00;;;;;;5037463;28;20064;-44
2022/04/13 04:49:18;;;;;;;4.07;2.47;;;15.60;47.10;;;;;;5037369;28;20061;-45
2022/04/13 04:51:49;;;;;;;8.35;2.70;;;15.50;47.10;;;;;;5032189;28;20060;-43
2022/04/13 04:54:17;;;;;;;7.47;2.50;;;15.50;47.20;;;;;;5039738;28;20049;-43
2022/04/13 04:56:44;;;;;;;5.93;2.78;;;15.50;47.10;;;;;;5035531;28;20061;-44
2022/04/13 04:59:12;;;;;;;4.22;2.13;;;15.50;47.20;;;;;;5037138;28;20053;-44
2022/04/13 05:01:40;;;;;;;3.05;2.10;;;15.50;47.30;;;;;;5032401;28;20498;-43
2022/04/13 05:04:08;;;;;;;4.03;2.30;;;15.50;47.30;;;;;;5026925;28;20064;-43
2022/04/13 05:06:35;;;;;;;4.18;2.15;;;15.50;47.40;;;;;;5028114;28;20394;-44
2022/04/13 05:09:04;;;;;;;4.28;2.75;;;15.50;47.40;;;;;;5028000;28;20048;-44
2022/04/13 05:11:32;;;;;;;6.55;3.63;;;15.50;47.50;;;;;;5025967;28;20064;-43
2022/04/13 05:13:59;;;;;;;8.00;2.80;;;15.50;47.50;;;;;;5040629;28;20057;-46
2022/04/13 05:16:27;;;;;;;3.45;2.33;;;15.50;47.50;;;;;;5039177;28;20057;-43
2022/04/13 05:18:55;;;;;;;6.80;2.83;;;15.50;47.50;;;;;;5040154;28;20139;-43
2022/04/13 05:21:22;;;;;;;4.80;2.45;;;15.50;47.60;;;;;;5036394;28;20421;-43
2022/04/13 05:23:50;;;;;;;3.85;2.10;;;15.50;47.60;;;;;;5039703;28;20501;-44
2022/04/13 05:26:19;;;;;;;3.00;2.08;;;15.40;47.50;;;;;;5040490;28;20424;-44
2022/04/13 05:28:47;;;;;;;4.93;2.42;;;15.40;47.60;;;;;;5041439;28;20067;-43
2022/04/13 05:31:15;;;;;;;3.30;2.05;;;15.40;47.70;;;;;;5036814;28;20416;-44
2022/04/13 05:33:43;;;;;;;3.17;2.05;;;15.40;47.70;;;;;;5039755;28;20045;-44
2022/04/13 05:36:10;;;;;;;3.85;2.13;;;15.40;47.70;;;;;;5040284;28;20503;-43
2022/04/13 05:38:39;;;;;;;4.50;2.20;;;15.40;47.80;;;;;;5039778;28;20405;-43
2022/04/13 05:41:07;;;;;;;4.53;2.38;;;15.40;47.90;;;;;;5039501;28;20057;-44
2022/04/13 05:43:36;;;;;;;5.05;2.55;;;15.50;47.90;;;;;;5031152;28;20064;-44
2022/04/13 05:46:04;;;;;;;5.07;2.25;;;15.50;47.90;;;;;;5032021;28;20041;-43
2022/04/13 05:48:31;;;;;;;4.97;2.30;;;15.50;47.90;;;;;;5037322;28;20456;-43
2022/04/13 05:51:00;;;;;;;4.18;2.13;;;15.50;48.20;;;;;;5037929;28;20049;-43
2022/04/13 05:53:27;;;;;;;5.88;2.22;;;15.50;48.10;;;;;;5037243;28;20057;-43
2022/04/13 05:55:56;;;;;;;8.88;2.90;;;15.60;48.10;;;;;;5039186;28;20433;-43
2022/04/13 05:58:25;;;;;;;5.25;2.75;;;15.60;48.10;;;;;;5038667;28;20548;-43
2022/04/13 06:00:54;;;;;;;3.13;2.30;;;15.60;48.10;;;;;;5031424;28;20068;-46
2022/04/13 06:03:23;;;;;;;4.47;2.72;;;15.60;48.10;;;;;;5032018;28;20048;-43
2022/04/13 06:05:51;;;;;;;7.45;2.75;;;15.60;48.10;;;;;;5025069;28;20048;-45
2022/04/13 06:08:19;;;;;;;5.88;2.53;;;15.70;48.10;;;;;;5023659;28;20069;-43
2022/04/13 06:10:47;;;;;;;6.05;2.20;;;15.70;48.10;;;;;;5034158;28;20052;-44
2022/04/13 06:13:14;;;;;;;8.25;2.60;;;15.80;48.10;;;;;;5033915;28;20050;-43
2022/04/13 06:15:44;;;;;;;5.20;2.63;;;15.80;48.10;;;;;;5041899;28;20044;-43
2022/04/13 06:18:13;;;;;;;3.35;2.13;;;15.80;48.10;;;;;;5030515;28;20096;-45
2022/04/13 06:20:41;;;;;;;4.07;2.72;;;15.90;48.10;;;;;;5041744;28;20448;-44
2022/04/13 06:23:08;;;;;;;5.13;2.78;;;15.90;48.20;;;;;;5037303;28;20527;-43
2022/04/13 06:25:36;;;;;;;3.30;2.25;;;16.00;48.70;;;;;;5028930;28;20075;-45
2022/04/13 06:28:04;;;;;;;6.35;2.60;;;16.00;48.20;;;;;;5033613;28;20413;-43
2022/04/13 06:30:31;;;;;;;5.35;2.47;;;16.10;48.40;;;;;;5038672;28;20386;-43
2022/04/13 06:32:59;;;;;;;7.10;3.20;;;16.10;48.40;;;;;;5030380;28;20171;-46
2022/04/13 06:35:30;;;;;;;6.88;3.75;;;16.20;48.40;;;;;;5020540;28;20057;-43
2022/04/13 06:37:58;;;;;;;8.95;3.72;;;16.20;48.30;;;;;;5035334;28;20512;-43
2022/04/13 06:40:26;;;;;;;8.55;3.65;;;16.20;48.40;;;;;;5040921;28;20063;-43
2022/04/13 06:42:53;;;;;;;7.88;3.47;;;16.30;48.50;;;;;;5039115;28;20061;-43
2022/04/13 06:45:21;;;;;;;6.05;3.17;;;16.30;48.60;;;;;;5042061;28;20068;-43
2022/04/13 06:47:48;;;;;;;9.73;3.33;;;16.40;48.60;;;;;;5041590;28;20064;-43
2022/04/13 06:50:16;;;;;;;5.30;2.80;;;16.50;48.70;;;;;;5040151;28;20076;-43
2022/04/13 06:52:46;;;;;;;5.38;2.83;;;16.50;48.60;;;;;;5035574;28;20052;-43
2022/04/13 06:55:15;;;;;;;4.00;2.70;;;16.60;48.70;;;;;;5044581;28;21729;-44
2022/04/13 06:57:49;;;;;;;6.18;2.70;;;16.60;48.60;;;;;;5035177;28;20052;-44
2022/04/13 07:00:25;;;;;;;;;;;16.70;48.70;;;;;;5045423;28;20429;-45
2022/04/13 07:02:57;;;;;;;7.82;2.67;;;16.80;48.50;;;;;;5040475;28;19925;-43
2022/04/13 07:05:25;;;;;;;5.32;2.58;;;16.90;48.80;;;;;;5045784;28;20055;-44
2022/04/13 07:07:55;;;;;;;6.30;2.50;;;17.00;48.80;;;;;;5030150;28;20057;-43
2022/04/13 07:10:23;;;;;;;4.95;2.50;;;17.00;48.80;;;;;;5029868;28;20057;-43
2022/04/13 07:12:50;;;;;;;7.70;2.97;;;17.10;49.40;;;;;;5039334;28;20090;-43
2022/04/13 07:15:18;;;;;;;5.10;2.70;;;17.10;49.30;;;;;;5036104;28;20049;-44
2022/04/13 07:17:46;;;;;;;9.48;3.13;;;17.20;49.30;;;;;;5037333;28;20060;-43
2022/04/13 07:20:16;;;;;;;6.78;2.92;;;17.20;49.10;;;;;;5032323;28;20056;-44
2022/04/13 07:22:45;;;;;;;9.50;2.78;;;17.30;49.00;;;;;;5027812;28;21348;-44
2022/04/13 07:25:18;;;;;;;8.88;2.75;;;17.40;49.50;;;;;;5028117;28;20053;-43
2022/04/13 07:27:47;;;;;;;10.13;3.33;;;17.40;49.00;;;;;;5019633;28;20143;-44
2022/04/13 07:30:15;;;;;;;11.18;2.70;;;17.50;48.80;;;;;;5019591;28;20408;-43
2022/04/13 07:32:48;;;;;;;13.25;2.95;;;17.60;48.80;;;;;;5025925;28;20485;-43
2022/04/13 07:35:17;;;;;;;10.13;2.90;;;17.60;48.90;;;;;;5027694;28;20049;-43
2022/04/13 07:37:45;;;;;;;13.15;2.95;;;17.70;48.70;;;;;;5030738;28;20064;-43
2022/04/13 07:40:17;;;;;;;11.80;3.45;;;17.70;48.40;;;;;;5032884;28;20413;-43
2022/04/13 07:42:44;;;;;;;10.27;3.08;;;17.80;48.10;;;;;;5021160;28;20068;-44
2022/04/13 07:45:12;;;;;;;10.07;3.17;;;17.90;47.70;;;;;;5026676;28;20814;-45
2022/04/13 07:47:40;;;;;;;14.00;3.70;;;17.90;47.70;;;;;;5037057;28;20076;-43
2022/04/13 07:50:11;;;;;;;12.32;3.50;;;18.00;47.60;;;;;;5031445;28;20053;-44
2022/04/13 07:52:39;;;;;;;8.57;2.78;;;18.00;47.40;;;;;;5031984;28;20044;-46
2022/04/13 07:55:09;;;;;;;8.32;3.33;;;18.10;47.50;;;;;;5024192;28;20056;-44
2022/04/13 07:57:38;;;;;;;8.05;3.63;;;18.20;47.70;;;;;;5026536;28;20057;-44
2022/04/13 08:00:09;;;;;;;13.10;4.03;;;18.20;47.90;;;;;;5022955;28;20520;-45
2022/04/13 08:02:38;;;;;;;10.10;3.22;;;18.30;47.20;;;;;;5023014;28;20308;-44
2022/04/13 08:05:07;;;;;;;10.55;3.65;;;18.30;46.90;;;;;;5026779;28;20056;-44
2022/04/13 08:07:35;;;;;;;10.30;3.55;;;18.40;46.90;;;;;;5029279;28;20064;-43
2022/04/13 08:10:03;;;;;;;11.98;4.07;;;18.40;47.10;;;;;;5034405;28;20056;-45
2022/04/13 08:12:31;;;;;;;10.70;4.35;;;18.40;47.10;;;;;;5038487;28;20053;-43
2022/04/13 08:15:00;;;;;;;11.57;3.97;;;18.50;47.00;;;;;;5036524;28;20564;-43
2022/04/13 08:17:28;;;;;;;14.15;4.68;;;18.50;47.00;;;;;;5032826;28;20049;-43
2022/04/13 08:19:56;;;;;;;9.45;4.53;;;18.50;47.00;;;;;;5035247;28;20072;-43
2022/04/13 08:22:24;;;;;;;14.65;5.18;;;18.60;46.80;;;;;;5029930;28;20060;-43
2022/04/13 08:24:52;;;;;;;15.23;4.35;;;18.60;46.90;;;;;;5021550;28;20065;-44
2022/04/13 08:27:20;;;;;;;13.48;4.60;;;18.70;47.50;;;;;;5029738;28;20045;-43
2022/04/13 08:29:48;;;;;;;11.00;4.40;;;18.70;47.80;;;;;;5022878;28;20057;-43
2022/04/13 08:32:19;;;;;;;14.27;4.72;;;18.70;47.90;;;;;;5020606;28;20054;-44
2022/04/13 08:34:48;;;;;;;17.92;5.97;;;18.70;47.70;;;;;;5024599;28;20060;-44
2022/04/13 08:37:16;;;;;;;17.17;5.88;;;18.80;47.30;;;;;;5032857;28;20485;-43
2022/04/13 08:39:43;;;;;;;16.65;5.40;;;18.90;47.20;;;;;;5039417;28;20049;-47
2022/04/13 08:42:13;;;;;;;11.40;4.47;;;18.90;47.40;;;;;;5034853;28;20501;-44
2022/04/13 08:44:50;;;;;;;10.73;4.75;;;18.90;47.50;;;;;;5032798;28;20053;-44
2022/04/13 08:47:21;;;;;;;19.80;4.95;;;18.90;47.50;;;;;;5038259;28;20053;-43
2022/04/13 08:49:50;;;;;;;12.98;5.65;;;19.00;47.30;;;;;;5037500;28;20379;-43
2022/04/13 08:52:20;;;;;;;14.82;5.43;;;19.00;47.10;;;;;;5035544;28;20401;-44
2022/04/13 08:54:59;;;;;;;20.00;4.95;;;19.00;47.10;;;;;;5039764;28;20060;-44
2022/04/13 08:57:30;;;;;;;19.10;5.65;;;19.10;47.40;;;;;;5034866;28;20267;-44
2022/04/13 09:00:13;;;;;;;13.02;5.47;;;19.10;47.40;;;;;;5039787;28;20049;-43
2022/04/13 09:03:05;;;;;;;14.52;5.75;;;19.20;47.20;;;;;;5039044;28;20413;-43
2022/04/13 09:05:34;;;;;;;16.20;6.28;;;19.20;47.20;;;;;;5035147;28;20411;-44
2022/04/13 09:08:07;;;;;;;14.55;5.82;;;19.20;47.60;;;;;;5038477;28;21206;-43
2022/04/13 09:10:34;;;;;;;15.60;5.47;;;19.30;47.00;;;;;;5040259;28;20059;-43
2022/04/13 09:13:03;;;;;;;18.17;6.88;;;19.40;46.90;;;;;;5039427;28;20417;-45
2022/04/13 09:15:30;;;;;;;20.90;7.93;;;19.40;47.00;;;;;;5040218;28;20057;-46
2022/04/13 09:18:01;;;;;;;20.73;5.80;;;19.40;47.00;;;;;;5040815;28;20045;-43
2022/04/13 09:20:28;;;;;;;25.42;7.55;;;19.40;46.90;;;;;;5039188;28;20049;-43
2022/04/13 09:22:59;;;;;;;17.42;6.13;;;19.50;47.60;;;;;;5037760;28;20500;-43
2022/04/13 09:25:27;;;;;;;17.70;7.32;;;19.50;47.30;;;;;;5040030;28;20508;-44
2022/04/13 09:27:55;;;;;;;16.45;7.32;;;19.60;47.90;;;;;;5041749;28;20049;-47
2022/04/13 09:30:23;;;;;;;20.17;6.82;;;19.60;47.60;;;;;;5037531;28;20069;-43
2022/04/13 09:32:51;;;;;;;20.63;6.35;;;19.70;47.30;;;;;;5037303;28;20053;-44
2022/04/13 09:35:21;;;;;;;17.75;6.57;;;19.70;47.60;;;;;;5032012;28;20053;-44
2022/04/13 09:37:48;;;;;;;17.55;6.95;;;19.80;47.80;;;;;;5037296;28;20053;-44
2022/04/13 09:40:31;;;;;;;19.77;7.10;;;19.80;47.40;;;;;;5038246;28;20056;-43
2022/04/13 09:43:10;;;;;;;21.63;7.03;;;19.90;47.10;;;;;;5034557;28;20052;-48
2022/04/13 09:45:39;;;;;;;22.38;7.85;;;20.00;46.90;;;;;;5044226;28;20458;-43
2022/04/13 09:48:08;;;;;;;16.48;7.50;;;20.00;47.40;;;;;;5041078;28;20048;-44
2022/04/13 09:50:39;;;;;;;17.17;7.15;;;20.10;47.50;;;;;;5037049;28;20065;-44
2022/04/13 09:53:07;;;;;;;15.88;7.35;;;20.20;47.40;;;;;;5044162;28;20060;-43
2022/04/13 09:55:38;;;;;;;15.43;6.63;;;20.20;47.20;;;;;;5044930;28;20052;-44
2022/04/13 11:54:47;;;;;;;12.07;5.05;;;22.50;42.50;;;;;;6005015;23;20021;-44
2022/04/13 11:57:14;;;;;;;13.45;4.93;;;22.50;43.10;;;;;;4978066;28;20417;-42
2022/04/13 11:59:46;;;;;;;28.92;5.78;;;22.60;43.50;;;;;;4982992;28;20054;-43
2022/04/13 12:02:16;;;;;;;14.25;5.05;;;22.60;43.30;;;;;;4981139;28;20050;-43
2022/04/13 12:04:46;;;;;;;11.27;5.05;;;22.60;42.70;;;;;;4980088;28;20061;-42
2022/04/13 12:07:13;;;;;;;18.40;5.10;;;22.60;42.60;;;;;;4977751;28;20057;-42
2022/04/13 12:09:43;;;;;;;17.75;4.82;;;22.70;43.60;;;;;;4979553;28;20604;-45
2022/04/13 12:12:16;;;;;;;12.98;5.03;;;22.80;43.20;;;;;;4980879;28;20068;-42
2022/04/13 12:14:45;;;;;;;16.13;4.75;;;22.80;43.60;;;;;;4982213;28;20485;-44
2022/04/13 12:17:15;;;;;;;16.92;5.43;;;22.90;42.60;;;;;;4982288;28;20061;-43
2022/04/13 12:19:43;;;;;;;9.30;3.67;;;22.90;42.40;;;;;;4983011;28;20486;-42
2022/04/13 12:22:18;;;;;;;17.33;5.00;;;23.00;42.30;;;;;;4979394;28;20074;-42
2022/04/13 12:24:59;;;;;;;16.55;5.03;;;23.10;41.70;;;;;;4981827;28;20054;-42
2022/04/13 12:27:28;;;;;;;12.57;3.83;;;23.20;41.40;;;;;;4981802;28;20050;-42
2022/04/13 12:30:11;;;;;;;14.80;4.13;;;23.30;41.80;;;;;;5166901;23;20131;-88
2022/04/13 12:32:45;;;;;;;16.95;5.30;;;23.40;41.50;;;;;;4967552;28;20185;-86
2022/04/13 12:35:13;;;;;;;13.75;4.85;;;23.40;41.70;;;;;;4967062;28;20070;-87
2022/04/13 12:37:50;;;;;;;17.38;5.00;;;23.40;41.00;;;;;;4968274;28;20058;-86
2022/04/13 12:40:25;;;;;;;11.65;4.03;;;23.50;40.70;;;;;;4970091;28;20061;-87
2022/04/13 12:42:54;;;;;;;17.00;4.60;;;23.50;40.70;;;;;;4962064;28;20058;-86
2022/04/13 12:45:29;;;;;;;11.75;3.88;;;23.60;40.90;;;;;;4968482;28;20578;-87
2022/04/13 12:47:57;;;;;;;12.30;3.45;;;23.60;40.60;;;;;;4966669;28;20055;-86
2022/04/13 12:50:25;;;;;;;13.88;4.32;;;23.70;40.90;;;;;;4965272;28;20063;-86
2022/04/13 12:52:58;;;;;;;17.38;4.93;;;23.70;40.80;;;;;;4967435;28;20058;-86
2022/04/13 12:55:26;;;;;;;14.93;4.10;;;23.70;40.40;;;;;;4964922;28;20051;-86
2022/04/13 12:58:01;;;;;;;16.63;4.57;;;23.80;40.00;;;;;;4961932;28;20406;-87
2022/04/13 13:00:48;;;;;;;10.82;3.92;;;23.70;39.20;;;;;;4964365;28;20058;-86
2022/04/13 13:03:18;;;;;;;15.88;3.97;;;23.70;39.90;;;;;;4960049;28;20769;-87
2022/04/13 13:05:47;;;;;;;14.00;3.85;;;23.70;40.00;;;;;;4961384;28;20433;-87
2022/04/13 13:08:15;;;;;;;12.93;3.88;;;23.70;39.80;;;;;;4963913;28;20508;-87
2022/04/13 13:10:46;;;;;;;19.95;4.13;;;23.70;39.90;;;;;;4963022;28;20055;-87
2022/04/13 13:13:17;;;;;;;17.52;4.82;;;23.70;39.60;;;;;;4962469;28;20106;-87
2022/04/13 13:15:45;;;;;;;23.42;4.75;;;23.70;39.60;;;;;;4960763;28;20065;-87
2022/04/13 13:18:13;;;;;;;19.05;4.93;;;23.60;40.30;;;;;;4960968;28;20062;-88
2022/04/13 13:20:55;;;;;;;13.57;4.15;;;23.60;40.30;;;;;;4964660;28;20065;-88
2022/04/13 13:23:26;;;;;;;15.70;4.20;;;23.50;40.70;;;;;;4971643;23;20055;-87
2022/04/13 13:25:55;;;;;;;18.85;4.60;;;23.40;40.90;;;;;;4958678;28;20050;-90
2022/04/13 13:28:25;;;;;;;16.35;4.30;;;23.40;40.70;;;;;;4961043;28;20398;-87
2022/04/13 13:30:55;;;;;;;11.65;4.30;;;23.40;40.30;;;;;;4960280;28;20047;-89
2022/04/13 13:33:23;;;;;;;10.35;3.78;;;23.40;40.00;;;;;;4956345;28;20054;-88
2022/04/13 13:35:51;;;;;;;15.02;4.30;;;23.40;39.40;;;;;;4961928;28;20081;-88
2022/04/13 13:38:23;;;;;;;13.90;4.00;;;23.30;40.00;;;;;;4958644;28;20043;-88
2022/04/13 13:40:53;;;;;;;13.23;3.40;;;23.30;40.60;;;;;;4965606;28;20057;-88
2022/04/13 13:43:38;;;;;;;16.02;4.28;;;23.30;40.90;;;;;;4958895;28;20050;-88
2022/04/13 13:46:17;;;;;;;20.85;4.63;;;23.30;41.10;;;;;;4961477;28;20066;-88
2022/04/13 13:48:44;;;;;;;19.08;4.68;;;23.30;40.90;;;;;;4961815;28;20359;-89
2022/04/13 13:51:14;;;;;;;15.70;4.13;;;23.30;40.20;;;;;;4961169;28;20066;-88
2022/04/13 13:53:42;;;;;;;12.82;3.25;;;23.40;40.30;;;;;;4960056;28;20054;-88
2022/04/13 13:56:10;;;;;;;9.82;3.20;;;23.40;40.00;;;;;;4960093;28;20070;-88
2022/04/13 13:58:39;;;;;;;14.23;3.47;;;23.50;40.30;;;;;;4961267;28;20073;-88
2022/04/13 14:01:06;;;;;;;19.50;3.78;;;23.60;40.50;;;;;;4963184;28;20046;-88
2022/04/13 14:03:37;;;;;;;13.10;3.20;;;23.60;39.30;;;;;;4958814;28;20058;-88
2022/04/13 14:06:26;;;;;;;11.55;3.00;;;23.70;39.20;;;;;;4962775;28;20059;-89
2022/04/13 14:08:54;;;;;;;13.48;3.22;;;23.70;39.10;;;;;;4962136;28;20483;-88
2022/04/13 14:11:23;;;;;;;8.88;2.70;;;23.70;38.50;;;;;;4958023;28;20391;-87
2022/04/13 14:13:52;;;;;;;11.93;3.13;;;23.70;37.80;;;;;;4961226;28;20431;-87
2022/04/13 14:16:19;;;;;;;16.20;3.30;;;23.70;37.80;;;;;;4958329;28;20058;-88
2022/04/13 14:18:47;;;;;;;15.60;3.70;;;23.70;38.20;;;;;;4958834;28;20127;-87
2022/04/13 14:21:22;;;;;;;8.90;3.13;;;23.60;38.20;;;;;;4957655;28;20061;-89
2022/04/13 14:23:49;;;;;;;10.00;2.38;;;23.60;39.10;;;;;;4955164;28;20055;-88
2022/04/13 14:28:46;;;;;;;15.75;3.28;;;23.60;39.80;;;;;;4976574;28;20054;-43
2022/04/13 14:31:15;;;;;;;11.38;3.45;;;23.50;39.90;;;;;;4983658;28;20065;-46
2022/04/13 14:33:42;;;;;;;17.58;3.97;;;23.50;40.50;;;;;;4984229;28;20634;-43
2022/04/13 14:36:10;;;;;;;15.05;4.03;;;23.50;40.60;;;;;;4984586;28;20072;-43
2022/04/13 14:38:38;;;;;;;13.88;3.35;;;23.50;40.30;;;;;;4981593;28;20058;-43
2022/04/13 14:41:06;;;;;;;14.85;3.67;;;23.40;40.10;;;;;;4978289;28;20054;-43
2022/04/13 14:43:33;;;;;;;15.90;3.60;;;23.40;40.50;;;;;;4982620;28;20062;-43
2022/04/13 14:46:01;;;;;;;12.82;3.17;;;23.40;40.90;;;;;;4981180;28;20532;-43
2022/04/13 14:48:30;;;;;;;13.57;3.20;;;23.40;40.50;;;;;;4985255;28;20050;-43
2022/04/13 14:50:58;;;;;;;16.42;3.63;;;23.30;39.80;;;;;;4984619;28;20061;-43
2022/04/13 14:53:25;;;;;;;10.70;3.03;;;23.20;40.10;;;;;;4982403;28;20062;-44
2022/04/13 14:55:53;;;;;;;12.93;3.30;;;23.20;41.50;;;;;;4979801;28;20425;-44